Terminal Aerodrome Forecast
Issued by NWS Quad Cities IA IL

Home | Current Version | Previous Version | Text Only | Print | Product List | Glossary On
Versions: 1 2 3 4 5 6 7 8 9 10 11 12 13 14 15 16
000
FTUS43 KDVN 190338 AAB
TAFMLI
TAF AMD
KMLI 190338Z 1904/1924 32009KT 3SM -SN BR BKN012 OVC018
     FM190500 33011KT 6SM BR OVC012
     FM190700 32009KT P6SM SCT012 BKN015
     FM191200 33007KT P6SM SKC=

USA.gov is the U.S. government's official web portal to all federal, state and local government web resources and services.